Time;durP1;ratioP1;P1;durP2;ratioP2;P2;SDS_P1;SDS_P2;PMS_P1;PMS_P2;Temp;Humidity;BMP_temperature;BMP_pressure;BME280_temperature;BME280_humidity;BME280_pressure;Samples;Min_cycle;Max_cycle;Signal;HPM_P1;HPM_P2
2022/08/26 00:02:02;;;;;;;11.82;9.60;;;21.90;99.90;;;;;;5052314;28;20205;-65
2022/08/26 00:04:28;;;;;;;12.07;9.75;;;21.90;99.90;;;;;;5051624;28;20178;-65
2022/08/26 00:06:55;;;;;;;14.35;12.95;;;21.90;99.90;;;;;;5052097;28;20179;-66
2022/08/26 00:09:21;;;;;;;19.42;12.57;;;21.90;99.90;;;;;;5051644;28;20226;-66
2022/08/26 00:11:47;;;;;;;17.88;16.23;;;21.90;99.90;;;;;;5051898;28;20680;-66
2022/08/26 00:14:15;;;;;;;21.15;15.80;;;21.90;99.90;;;;;;5051933;28;20567;-66
2022/08/26 00:16:41;;;;;;;23.23;20.48;;;21.90;99.90;;;;;;5051949;28;20219;-65
2022/08/26 00:19:08;;;;;;;27.85;20.73;;;21.80;99.90;;;;;;5052362;28;20541;-66
2022/08/26 00:21:33;;;;;;;21.42;19.25;;;21.80;99.90;;;;;;5052098;28;20289;-66
2022/08/26 00:23:59;;;;;;;30.35;24.73;;;21.90;99.90;;;;;;5051826;28;20202;-67
2022/08/26 00:26:24;;;;;;;30.00;24.85;;;21.90;99.90;;;;;;5052151;28;20183;-66
2022/08/26 00:28:50;;;;;;;29.20;25.13;;;21.90;99.90;;;;;;5051918;28;20195;-66
2022/08/26 00:31:16;;;;;;;26.60;23.88;;;21.80;99.90;;;;;;5051052;28;20175;-66
2022/08/26 00:33:41;;;;;;;39.95;36.25;;;21.70;99.90;;;;;;5051917;28;20232;-66
2022/08/26 00:36:08;;;;;;;37.03;33.53;;;21.70;99.90;;;;;;5052169;28;20247;-66
2022/08/26 00:38:35;;;;;;;39.67;32.78;;;21.60;99.90;;;;;;5052610;28;20277;-66
2022/08/26 00:41:01;;;;;;;43.75;39.13;;;21.60;99.90;;;;;;5051617;28;20198;-65
2022/08/26 00:43:29;;;;;;;39.45;34.50;;;21.60;99.90;;;;;;5051944;28;20301;-64
2022/08/26 00:46:09;;;;;;;46.85;36.95;;;21.50;99.90;;;;;;5052123;28;20711;-66
2022/08/26 00:48:37;;;;;;;46.40;40.67;;;21.50;99.90;;;;;;5031742;28;20235;-65
2022/08/26 00:51:14;;;;;;;48.78;40.58;;;21.50;99.90;;;;;;5032190;28;20175;-66
2022/08/26 00:53:46;;;;;;;53.08;40.65;;;21.50;99.90;;;;;;5031702;28;20217;-66
2022/08/26 00:56:35;;;;;;;53.22;47.17;;;21.40;99.90;;;;;;5033024;28;20222;-66
2022/08/26 00:59:05;;;;;;;47.35;40.85;;;21.40;99.90;;;;;;5051820;28;20281;-66
2022/08/26 01:01:31;;;;;;;51.63;41.80;;;21.40;99.90;;;;;;5051898;28;20222;-66
2022/08/26 01:03:57;;;;;;;51.53;44.25;;;21.40;99.90;;;;;;5054892;28;20171;-66
2022/08/26 01:06:23;;;;;;;58.05;44.25;;;21.40;99.90;;;;;;5055560;28;20232;-66
2022/08/26 01:08:50;;;;;;;56.90;46.58;;;21.40;99.90;;;;;;5054306;28;20195;-65
2022/08/26 01:11:15;;;;;;;64.13;51.67;;;21.30;99.90;;;;;;5055526;28;20656;-65
2022/08/26 01:13:41;;;;;;;62.85;51.65;;;21.30;99.90;;;;;;5055477;28;20228;-66
2022/08/26 01:16:11;;;;;;;61.53;51.17;;;21.30;99.90;;;;;;5054143;28;20727;-66
2022/08/26 01:18:39;;;;;;;66.55;52.55;;;21.30;99.90;;;;;;5055356;28;20566;-67
2022/08/26 01:21:20;;;;;;;67.85;54.65;;;21.30;99.90;;;;;;5055116;28;20203;-66
2022/08/26 01:23:49;;;;;;;65.63;54.92;;;21.30;99.90;;;;;;5055264;28;20170;-66
2022/08/26 01:26:19;;;;;;;73.63;65.80;;;21.20;99.90;;;;;;5055059;28;20167;-67
2022/08/26 01:28:45;;;;;;;65.15;50.05;;;21.20;99.90;;;;;;5054801;28;20199;-66
2022/08/26 01:31:14;;;;;;;70.88;51.67;;;21.20;99.90;;;;;;5054820;28;20734;-67
2022/08/26 01:33:50;;;;;;;63.65;49.67;;;21.20;99.90;;;;;;5054998;28;20206;-67
2022/08/26 01:36:15;;;;;;;64.22;51.95;;;21.20;99.90;;;;;;5055069;28;20214;-66
2022/08/26 01:38:42;;;;;;;63.92;52.33;;;21.10;99.90;;;;;;5055335;28;20695;-66
2022/08/26 01:41:10;;;;;;;69.55;55.28;;;21.10;99.90;;;;;;5054952;28;20194;-67
2022/08/26 01:43:38;;;;;;;63.78;50.08;;;21.10;99.90;;;;;;5053348;28;20217;-66
2022/08/26 01:46:05;;;;;;;63.85;50.10;;;21.00;99.90;;;;;;5054378;28;20182;-65
2022/08/26 01:48:34;;;;;;;62.60;46.53;;;21.00;99.90;;;;;;5055043;28;20218;-66
2022/08/26 01:51:02;;;;;;;57.63;46.28;;;21.00;99.90;;;;;;5054905;28;20190;-66
2022/08/26 01:53:29;;;;;;;58.55;50.03;;;20.90;99.90;;;;;;5054808;28;20181;-66
2022/08/26 01:55:59;;;;;;;60.20;50.40;;;20.90;99.90;;;;;;5054745;28;20214;-66
2022/08/26 01:58:45;;;;;;;60.67;46.70;;;20.90;99.90;;;;;;5055167;28;20209;-67
2022/08/26 02:01:12;;;;;;;60.95;48.90;;;20.90;99.90;;;;;;5054847;28;20294;-66
2022/08/26 02:04:04;;;;;;;62.67;46.70;;;20.80;99.90;;;;;;5054805;28;20178;-67
2022/08/26 02:06:31;;;;;;;53.22;45.42;;;20.80;99.90;;;;;;5054874;28;20183;-67
2022/08/26 02:09:00;;;;;;;59.25;44.60;;;20.80;99.90;;;;;;5055025;28;20226;-67
2022/08/26 02:11:26;;;;;;;57.95;45.13;;;20.70;99.90;;;;;;5054955;28;20178;-67
2022/08/26 02:14:02;;;;;;;52.40;42.28;;;20.70;99.90;;;;;;5054192;28;20187;-67
2022/08/26 02:16:32;;;;;;;57.00;42.58;;;20.60;99.90;;;;;;5054587;28;20186;-66
2022/08/26 02:19:00;;;;;;;55.65;40.28;;;20.60;99.90;;;;;;5054381;28;20209;-67
2022/08/26 02:21:26;;;;;;;51.75;45.03;;;20.50;99.90;;;;;;5054074;28;20202;-66
2022/08/26 02:23:52;;;;;;;57.90;47.00;;;20.50;99.90;;;;;;5034366;28;20172;-66
2022/08/26 02:26:21;;;;;;;52.80;41.42;;;20.50;99.90;;;;;;5034622;28;20263;-66
2022/08/26 02:29:05;;;;;;;51.50;39.72;;;20.50;99.90;;;;;;5034365;28;20203;-67
2022/08/26 02:31:31;;;;;;;56.90;42.08;;;20.40;99.90;;;;;;5054013;28;20555;-66
2022/08/26 02:34:07;;;;;;;47.70;39.97;;;20.30;99.90;;;;;;5053032;28;20186;-67
2022/08/26 02:36:33;;;;;;;50.10;41.50;;;20.30;99.90;;;;;;5054609;28;20185;-67
2022/08/26 02:38:58;;;;;;;47.57;41.40;;;20.30;99.90;;;;;;5054191;28;20199;-66
2022/08/26 02:41:24;;;;;;;49.83;40.85;;;20.30;99.90;;;;;;5054122;28;20293;-66
2022/08/26 02:43:50;;;;;;;51.20;40.42;;;20.30;99.90;;;;;;5053867;28;20167;-66
2022/08/26 02:46:15;;;;;;;50.50;41.77;;;20.30;99.90;;;;;;5053693;28;20213;-67
2022/08/26 02:48:41;;;;;;;53.33;42.93;;;20.30;99.90;;;;;;5053660;28;20215;-67
2022/08/26 02:51:07;;;;;;;53.37;40.53;;;20.30;99.90;;;;;;5053677;28;20203;-66
2022/08/26 02:53:33;;;;;;;59.10;40.95;;;20.30;99.90;;;;;;5053620;28;20183;-66
2022/08/26 02:55:59;;;;;;;51.85;41.05;;;20.30;99.90;;;;;;5053822;28;20182;-66
2022/08/26 02:58:25;;;;;;;50.30;40.22;;;20.30;99.90;;;;;;5053697;28;20209;-66
2022/08/26 03:00:52;;;;;;;42.08;36.25;;;20.30;99.90;;;;;;5052841;28;20616;-67
2022/08/26 03:03:18;;;;;;;44.53;37.78;;;20.30;99.90;;;;;;5053676;28;20198;-67
2022/08/26 03:05:43;;;;;;;49.35;37.80;;;20.30;99.90;;;;;;5053032;28;20175;-66
2022/08/26 03:08:10;;;;;;;49.22;37.28;;;20.40;99.90;;;;;;5053686;28;20198;-66
2022/08/26 03:10:37;;;;;;;52.05;38.08;;;20.50;99.90;;;;;;5053346;28;20174;-67
2022/08/26 03:13:02;;;;;;;57.27;38.97;;;20.50;99.90;;;;;;5053373;28;20175;-66
2022/08/26 03:15:28;;;;;;;45.33;34.28;;;20.60;99.90;;;;;;5053257;28;20534;-67
2022/08/26 03:17:54;;;;;;;43.90;36.22;;;20.70;99.90;;;;;;5053416;28;20321;-66
2022/08/26 03:20:20;;;;;;;47.40;37.17;;;20.70;99.90;;;;;;5053680;28;20171;-66
2022/08/26 03:22:46;;;;;;;45.40;35.90;;;20.80;99.90;;;;;;5053322;28;20182;-66
2022/08/26 03:25:14;;;;;;;48.67;36.72;;;20.80;99.90;;;;;;5052917;28;20206;-66
2022/08/26 03:27:40;;;;;;;44.78;33.88;;;20.80;99.90;;;;;;5052139;28;20198;-66
2022/08/26 03:32:51;;;;;;;44.97;35.97;;;20.90;99.90;;;;;;5053423;28;20185;-67
2022/08/26 03:35:17;;;;;;;43.28;36.45;;;20.80;99.90;;;;;;5052304;28;20228;-66
2022/08/26 03:37:43;;;;;;;46.53;36.50;;;20.90;99.90;;;;;;5052996;28;20198;-67
2022/08/26 03:40:10;;;;;;;41.33;33.35;;;20.90;99.90;;;;;;5052065;28;20327;-67
2022/08/26 03:42:38;;;;;;;42.43;32.03;;;21.00;99.90;;;;;;5053279;28;20230;-66
2022/08/26 03:45:05;;;;;;;42.28;30.45;;;21.00;99.90;;;;;;5052693;28;20175;-67
2022/08/26 03:47:32;;;;;;;37.63;30.65;;;21.00;99.90;;;;;;5052893;28;20203;-67
2022/08/26 03:49:58;;;;;;;40.65;30.15;;;21.00;99.90;;;;;;5052966;28;20174;-66
2022/08/26 03:52:23;;;;;;;38.97;31.73;;;21.00;99.90;;;;;;5053103;28;20175;-66
2022/08/26 03:54:49;;;;;;;34.10;28.03;;;20.90;99.90;;;;;;5052511;28;20174;-67
2022/08/26 03:57:15;;;;;;;33.35;29.77;;;20.90;99.90;;;;;;5053045;28;20213;-67
2022/08/26 03:59:40;;;;;;;41.08;31.50;;;20.90;99.90;;;;;;5052857;28;20197;-67
2022/08/26 04:02:06;;;;;;;34.60;29.52;;;20.90;99.90;;;;;;5052828;28;20213;-67
2022/08/26 04:04:31;;;;;;;39.92;31.00;;;20.90;99.90;;;;;;5052537;28;20249;-65
2022/08/26 04:06:58;;;;;;;34.88;30.23;;;20.90;99.90;;;;;;5052426;28;20205;-67
2022/08/26 04:09:24;;;;;;;33.78;29.20;;;20.90;99.90;;;;;;5052553;28;20174;-66
2022/08/26 04:11:50;;;;;;;38.22;30.20;;;20.90;99.90;;;;;;5052555;28;20232;-67
2022/08/26 04:14:18;;;;;;;35.20;28.02;;;20.90;99.90;;;;;;5051983;28;20179;-67
2022/08/26 04:16:45;;;;;;;34.53;29.13;;;20.90;99.90;;;;;;5052896;28;20221;-65
2022/08/26 04:19:12;;;;;;;33.85;29.05;;;20.90;99.90;;;;;;5052291;28;20229;-66
2022/08/26 04:21:39;;;;;;;32.47;28.25;;;20.90;99.90;;;;;;5052679;28;20317;-67
2022/08/26 04:24:05;;;;;;;29.48;26.27;;;20.90;99.90;;;;;;5052104;28;20514;-67
2022/08/26 04:26:36;;;;;;;32.67;27.83;;;20.90;99.90;;;;;;5052192;28;20186;-67
2022/08/26 04:29:04;;;;;;;34.45;30.85;;;21.00;99.90;;;;;;5052067;28;20198;-67
2022/08/26 04:31:32;;;;;;;35.55;31.83;;;21.00;99.90;;;;;;5052496;28;20178;-67
2022/08/26 04:33:57;;;;;;;37.03;33.13;;;21.00;99.90;;;;;;5052061;28;20175;-66
2022/08/26 04:36:23;;;;;;;32.15;28.13;;;21.00;99.90;;;;;;5052513;28;20212;-66
2022/08/26 04:38:49;;;;;;;32.22;28.83;;;20.90;99.90;;;;;;5055745;28;20194;-66
2022/08/26 04:41:17;;;;;;;32.00;28.77;;;21.00;99.90;;;;;;5054910;28;20211;-66
2022/08/26 04:43:44;;;;;;;33.67;29.40;;;21.00;99.90;;;;;;5056552;28;20178;-67
2022/08/26 04:46:10;;;;;;;32.65;29.40;;;21.00;99.90;;;;;;5054818;28;20548;-67
2022/08/26 04:48:36;;;;;;;30.00;26.50;;;21.00;99.90;;;;;;5079930;22;20234;-66
2022/08/26 04:51:03;;;;;;;30.60;27.15;;;21.00;99.90;;;;;;5055068;28;20249;-65
2022/08/26 04:53:29;;;;;;;30.65;25.08;;;21.10;99.90;;;;;;5053890;28;20265;-65
2022/08/26 04:55:55;;;;;;;29.50;25.67;;;21.20;99.90;;;;;;5053990;28;20259;-66
2022/08/26 04:58:23;;;;;;;28.05;25.30;;;21.20;99.90;;;;;;5053829;28;20256;-67
2022/08/26 05:00:51;;;;;;;28.57;25.50;;;21.20;99.90;;;;;;5055079;28;20195;-66
2022/08/26 05:03:17;;;;;;;27.42;24.48;;;21.20;99.90;;;;;;5053538;28;20228;-66
2022/08/26 05:05:45;;;;;;;25.45;20.77;;;21.30;99.90;;;;;;5054970;28;20171;-66
2022/08/26 05:08:13;;;;;;;24.38;20.65;;;21.30;99.90;;;;;;5053546;28;20194;-65
2022/08/26 05:10:50;;;;;;;23.60;19.42;;;21.40;99.90;;;;;;5053690;28;20575;-66
2022/08/26 05:13:18;;;;;;;29.67;26.77;;;21.30;99.90;;;;;;5054541;28;20270;-66
2022/08/26 05:15:44;;;;;;;29.15;26.48;;;21.40;99.90;;;;;;5054621;28;20163;-65
2022/08/26 05:18:12;;;;;;;32.17;29.23;;;21.40;99.90;;;;;;5054629;28;20252;-66
2022/08/26 05:20:44;;;;;;;34.83;31.50;;;21.40;99.90;;;;;;5053508;28;20171;-66
2022/08/26 05:23:10;;;;;;;23.13;20.90;;;21.30;99.90;;;;;;5053181;28;20183;-66
2022/08/26 05:25:42;;;;;;;27.98;25.40;;;21.30;99.90;;;;;;5053269;28;20270;-65
2022/08/26 05:28:10;;;;;;;22.50;20.40;;;21.30;99.90;;;;;;5054281;28;20538;-66
2022/08/26 05:30:36;;;;;;;22.83;20.42;;;21.40;99.90;;;;;;5053333;28;20182;-66
2022/08/26 05:33:03;;;;;;;25.00;22.63;;;21.50;99.90;;;;;;5054460;28;20236;-65
2022/08/26 05:35:33;;;;;;;20.00;15.68;;;21.60;99.90;;;;;;5054561;28;20721;-66
2022/08/26 05:38:03;;;;;;;19.15;16.17;;;21.50;99.90;;;;;;5052768;28;20388;-66
2022/08/26 05:40:33;;;;;;;16.25;14.65;;;21.60;99.90;;;;;;5053184;28;20600;-66
2022/08/26 05:42:59;;;;;;;21.33;19.17;;;21.60;99.90;;;;;;5052615;28;20202;-66
2022/08/26 05:45:25;;;;;;;23.35;21.45;;;21.60;99.90;;;;;;5052143;28;20179;-66
2022/08/26 05:47:51;;;;;;;20.85;18.85;;;21.60;99.90;;;;;;5054170;28;20663;-65
2022/08/26 05:50:20;;;;;;;19.70;18.10;;;21.50;99.90;;;;;;5051068;28;20175;-65
2022/08/26 05:52:48;;;;;;;16.75;15.25;;;21.60;99.90;;;;;;5051625;28;20189;-66
2022/08/26 05:55:13;;;;;;;20.63;17.58;;;21.60;99.90;;;;;;5053620;28;20174;-65
2022/08/26 05:57:39;;;;;;;25.35;23.25;;;21.60;99.90;;;;;;5052342;28;20695;-67
2022/08/26 06:00:05;;;;;;;15.10;13.65;;;21.60;99.90;;;;;;5054035;28;20167;-67
2022/08/26 06:02:31;;;;;;;13.23;11.80;;;21.70;99.90;;;;;;5052301;28;20214;-66
2022/08/26 06:04:57;;;;;;;12.80;11.52;;;21.70;99.90;;;;;;5052246;28;20636;-67
2022/08/26 06:08:09;;;;;;;15.02;11.13;;;21.70;99.90;;;;;;5052304;28;20178;-67
2022/08/26 06:10:12;;;;;;;13.95;11.25;;;21.90;99.90;;;;;;5053757;28;20174;-67
2022/08/26 06:12:38;;;;;;;19.90;14.50;;;21.90;99.90;;;;;;5053465;28;20179;-66
2022/08/26 06:15:04;;;;;;;12.10;11.00;;;21.80;99.90;;;;;;5053175;28;20197;-66
2022/08/26 06:17:30;;;;;;;10.48;9.40;;;21.90;99.90;;;;;;5053548;28;20598;-66
2022/08/26 06:19:57;;;;;;;15.00;10.95;;;22.00;99.90;;;;;;5052129;28;20274;-66
2022/08/26 06:27:51;;;;;;;11.55;10.52;;;22.20;99.90;;;;;;5053269;28;20194;-67
2022/08/26 06:30:18;;;;;;;13.55;12.35;;;22.30;99.90;;;;;;5052127;28;20559;-67
2022/08/26 06:32:44;;;;;;;13.55;11.32;;;22.20;99.90;;;;;;5053127;28;20179;-66
2022/08/26 06:35:10;;;;;;;13.00;11.88;;;22.20;99.90;;;;;;5051583;28;20536;-66
2022/08/26 06:37:36;;;;;;;14.77;12.23;;;22.10;99.90;;;;;;5052962;28;20260;-66
2022/08/26 06:40:03;;;;;;;17.00;15.52;;;22.20;99.90;;;;;;5051724;28;20171;-67
2022/08/26 06:42:28;;;;;;;14.77;13.40;;;22.30;99.90;;;;;;5052871;28;20280;-67
2022/08/26 06:44:54;;;;;;;20.92;18.98;;;22.40;99.90;;;;;;5050451;28;20171;-67
2022/08/26 06:47:20;;;;;;;19.83;18.00;;;22.40;99.90;;;;;;5051292;28;20258;-66
2022/08/26 06:49:45;;;;;;;17.35;15.52;;;22.40;99.90;;;;;;5051656;28;20174;-66
2022/08/26 06:52:11;;;;;;;19.60;18.10;;;22.40;99.90;;;;;;5052986;28;20175;-66
2022/08/26 06:54:40;;;;;;;21.92;20.00;;;22.40;99.90;;;;;;5052037;28;20194;-66
2022/08/26 06:57:06;;;;;;;22.65;20.85;;;22.40;99.90;;;;;;5051431;28;20184;-66
2022/08/26 06:59:31;;;;;;;19.42;14.70;;;22.30;99.90;;;;;;5052546;28;20728;-67
2022/08/26 07:01:57;;;;;;;13.45;12.45;;;22.30;99.90;;;;;;5051028;28;20233;-67
2022/08/26 07:04:23;;;;;;;12.63;11.20;;;22.20;99.90;;;;;;5051291;28;20183;-66
2022/08/26 07:06:51;;;;;;;15.23;13.82;;;22.20;99.90;;;;;;5052166;28;20167;-66
2022/08/26 07:09:16;;;;;;;13.52;11.65;;;22.20;99.90;;;;;;5051336;28;20252;-66
2022/08/26 07:11:43;;;;;;;12.57;11.25;;;22.10;99.90;;;;;;5050999;28;20206;-67
2022/08/26 07:14:09;;;;;;;11.77;10.15;;;22.20;99.90;;;;;;5051045;28;20240;-66
2022/08/26 07:16:35;;;;;;;11.48;9.65;;;22.20;99.90;;;;;;5051053;28;20183;-67
2022/08/26 07:19:02;;;;;;;13.13;11.93;;;22.30;99.90;;;;;;5052265;28;20198;-67
2022/08/26 07:21:27;;;;;;;17.42;16.10;;;22.40;99.90;;;;;;5050838;28;20225;-66
2022/08/26 07:23:53;;;;;;;14.95;13.68;;;22.30;99.90;;;;;;5047494;28;20171;-66
2022/08/26 07:26:22;;;;;;;16.08;14.85;;;22.30;99.90;;;;;;5052426;28;20185;-67
2022/08/26 07:28:51;;;;;;;12.45;11.32;;;22.20;99.90;;;;;;5051714;28;20198;-66
2022/08/26 07:31:19;;;;;;;12.95;11.65;;;22.30;99.90;;;;;;5052428;28;20171;-66
2022/08/26 07:33:45;;;;;;;14.18;12.02;;;22.40;99.90;;;;;;5050267;28;20175;-66
2022/08/26 07:36:12;;;;;;;13.45;9.77;;;22.40;99.90;;;;;;5052388;28;20587;-66
2022/08/26 07:38:38;;;;;;;11.20;10.20;;;22.40;99.90;;;;;;5050449;28;20676;-66
2022/08/26 07:41:05;;;;;;;12.88;11.77;;;22.40;99.90;;;;;;5052043;28;20599;-66
2022/08/26 07:43:31;;;;;;;17.45;16.05;;;22.40;99.90;;;;;;5050340;28;20213;-66
2022/08/26 07:45:57;;;;;;;16.73;15.07;;;22.40;99.90;;;;;;5051778;28;20198;-66
2022/08/26 07:48:23;;;;;;;16.30;14.68;;;22.50;99.90;;;;;;5050473;28;20234;-67
2022/08/26 07:50:49;;;;;;;10.98;9.93;;;22.60;99.90;;;;;;5050425;28;20635;-66
2022/08/26 07:53:14;;;;;;;11.00;9.90;;;22.70;99.90;;;;;;5050813;28;20162;-66
2022/08/26 07:55:40;;;;;;;10.77;9.68;;;22.80;99.90;;;;;;5049877;28;20266;-66
2022/08/26 07:58:06;;;;;;;10.85;9.85;;;22.80;99.90;;;;;;5051630;28;20217;-66
2022/08/26 08:00:33;;;;;;;12.07;10.88;;;22.70;99.90;;;;;;5051418;28;20170;-67
2022/08/26 08:02:59;;;;;;;11.77;10.18;;;22.70;99.90;;;;;;5050630;28;20547;-66
2022/08/26 08:05:25;;;;;;;10.73;9.77;;;22.70;99.90;;;;;;5051507;28;20217;-67
2022/08/26 08:07:51;;;;;;;11.75;10.55;;;22.50;99.90;;;;;;5051303;28;20273;-66
2022/08/26 08:10:22;;;;;;;12.27;11.18;;;22.40;99.90;;;;;;5050315;28;20644;-66
2022/08/26 08:12:49;;;;;;;13.15;11.75;;;22.40;99.90;;;;;;5049499;28;20175;-66
2022/08/26 08:15:19;;;;;;;11.25;10.10;;;22.30;99.90;;;;;;5049849;28;20255;-66
2022/08/26 08:17:46;;;;;;;14.35;13.10;;;22.40;99.90;;;;;;5050566;28;20281;-65
2022/08/26 08:20:13;;;;;;;13.48;12.07;;;22.40;99.90;;;;;;5051909;28;20636;-67
2022/08/26 08:22:39;;;;;;;13.88;12.80;;;22.40;99.90;;;;;;5049927;28;20229;-66
2022/08/26 08:25:06;;;;;;;11.93;10.93;;;22.40;99.90;;;;;;5050996;28;20170;-66
2022/08/26 08:27:36;;;;;;;11.60;10.40;;;22.40;99.90;;;;;;5051241;28;20174;-67
2022/08/26 08:30:02;;;;;;;9.40;8.38;;;22.60;99.90;;;;;;5051107;28;20163;-66
2022/08/26 08:32:28;;;;;;;11.32;9.27;;;22.70;99.90;;;;;;5046997;28;20232;-67
2022/08/26 08:34:54;;;;;;;11.57;10.23;;;22.80;99.90;;;;;;5050845;28;20183;-67
2022/08/26 08:37:20;;;;;;;14.15;10.43;;;22.90;99.90;;;;;;5049671;28;20256;-66
2022/08/26 08:39:46;;;;;;;10.25;9.27;;;23.00;99.90;;;;;;5049908;28;20175;-66
2022/08/26 08:42:33;;;;;;;10.85;9.80;;;23.10;99.90;;;;;;5049930;28;20571;-67
2022/08/26 08:45:04;;;;;;;11.13;9.15;;;23.30;99.90;;;;;;5049651;28;20175;-67
2022/08/26 08:47:49;;;;;;;11.13;8.88;;;23.30;99.90;;;;;;5049906;28;20765;-66
2022/08/26 08:50:26;;;;;;;11.75;10.55;;;23.30;99.90;;;;;;5050123;28;20593;-66
2022/08/26 08:53:11;;;;;;;12.23;11.30;;;23.40;99.90;;;;;;5049708;28;20578;-65
2022/08/26 08:55:54;;;;;;;8.57;7.68;;;23.40;99.90;;;;;;5050869;28;20662;-66
2022/08/26 08:58:27;;;;;;;8.70;7.97;;;23.50;99.90;;;;;;5049938;28;20723;-66
2022/08/26 09:01:03;;;;;;;11.13;10.07;;;23.60;99.90;;;;;;5050897;28;20272;-66
2022/08/26 09:03:40;;;;;;;9.57;8.73;;;23.80;99.90;;;;;;5048210;28;20171;-66
2022/08/26 09:06:16;;;;;;;9.85;8.98;;;23.70;99.90;;;;;;5049580;28;20670;-67
2022/08/26 09:08:43;;;;;;;10.13;9.43;;;23.50;99.90;;;;;;5050847;28;20788;-67
2022/08/26 09:11:09;;;;;;;8.80;8.05;;;23.40;99.90;;;;;;5049786;28;20561;-66
2022/08/26 09:13:37;;;;;;;10.43;8.77;;;23.40;99.90;;;;;;5050897;28;20262;-66
2022/08/26 09:16:16;;;;;;;11.52;8.57;;;23.40;99.90;;;;;;5048604;28;20266;-67
2022/08/26 09:19:18;;;;;;;10.90;8.80;;;23.40;99.90;;;;;;5050588;28;20269;-66
2022/08/26 09:21:44;;;;;;;10.15;9.48;;;23.30;99.90;;;;;;5050486;28;20285;-66
2022/08/26 09:24:09;;;;;;;12.13;10.32;;;23.30;99.90;;;;;;5051038;28;20270;-66
2022/08/26 09:26:38;;;;;;;8.80;8.10;;;23.40;99.90;;;;;;5054706;28;20710;-66
2022/08/26 09:29:17;;;;;;;11.10;8.60;;;23.40;99.90;;;;;;5052021;28;20632;-66
2022/08/26 09:31:44;;;;;;;10.32;9.43;;;23.50;99.90;;;;;;5053474;28;20678;-66
2022/08/26 09:34:12;;;;;;;9.75;8.70;;;23.50;99.90;;;;;;5053697;28;20175;-67
2022/08/26 09:36:45;;;;;;;10.48;9.57;;;23.50;99.90;;;;;;5054309;28;20174;-67
2022/08/26 09:39:26;;;;;;;11.70;10.73;;;23.40;99.90;;;;;;5051882;28;20820;-66
2022/08/26 09:42:07;;;;;;;12.20;11.30;;;23.30;99.90;;;;;;5052783;28;20297;-67
2022/08/26 09:44:35;;;;;;;10.13;9.32;;;23.40;99.90;;;;;;5052788;28;20175;-67
2022/08/26 09:47:04;;;;;;;16.02;14.18;;;23.50;99.90;;;;;;5053088;28;20190;-66
2022/08/26 09:49:39;;;;;;;8.65;7.85;;;23.70;99.90;;;;;;5051676;28;20242;-67
2022/08/26 09:52:34;;;;;;;10.02;8.52;;;23.80;99.90;;;;;;5053482;28;20183;-67
2022/08/26 09:55:08;;;;;;;9.30;8.40;;;23.90;99.90;;;;;;5052333;28;20203;-66
2022/08/26 09:57:52;;;;;;;10.25;8.13;;;24.00;99.90;;;;;;5051715;28;20284;-67
2022/08/26 10:00:39;;;;;;;10.77;9.95;;;24.00;99.90;;;;;;5032943;28;20182;-66
2022/08/26 10:03:22;;;;;;;13.55;12.20;;;24.00;99.90;;;;;;5051304;28;20229;-67
2022/08/26 10:06:16;;;;;;;12.50;11.30;;;24.00;99.90;;;;;;5053721;28;20233;-67
2022/08/26 10:08:50;;;;;;;15.80;14.35;;;24.00;99.90;;;;;;5053696;28;20210;-66
2022/08/26 10:11:35;;;;;;;11.48;10.55;;;24.10;99.90;;;;;;5053337;28;20186;-67
2022/08/26 10:14:11;;;;;;;8.65;7.75;;;24.20;99.90;;;;;;5050504;28;20240;-66
2022/08/26 10:17:04;;;;;;;6.65;6.05;;;24.20;99.90;;;;;;5053863;28;20170;-67
2022/08/26 10:19:47;;;;;;;10.07;7.38;;;24.40;99.90;;;;;;5032327;28;20199;-67
2022/08/26 10:22:21;;;;;;;7.63;6.07;;;24.50;99.90;;;;;;5036692;28;20206;-67
2022/08/26 10:24:54;;;;;;;9.10;7.70;;;24.40;99.90;;;;;;5051622;28;20269;-66
2022/08/26 10:27:40;;;;;;;6.93;5.60;;;24.20;99.90;;;;;;5052275;28;20194;-66
2022/08/26 10:30:15;;;;;;;6.28;5.65;;;24.40;99.90;;;;;;5053433;28;20194;-67
2022/08/26 10:33:02;;;;;;;6.95;5.35;;;24.60;99.90;;;;;;5051918;28;20179;-67
2022/08/26 10:35:29;;;;;;;5.38;4.93;;;24.80;99.90;;;;;;5051272;28;20179;-67
2022/08/26 10:37:59;;;;;;;5.70;5.10;;;24.90;99.90;;;;;;5051654;28;20606;-66
2022/08/26 10:40:50;;;;;;;7.28;6.53;;;24.90;99.90;;;;;;5052146;28;20260;-66
2022/08/26 10:43:24;;;;;;;7.70;7.00;;;24.90;99.90;;;;;;5053288;28;20201;-66
2022/08/26 10:45:55;;;;;;;4.93;4.57;;;24.70;99.90;;;;;;5051750;28;20175;-67
2022/08/26 10:48:32;;;;;;;7.63;6.72;;;24.80;99.90;;;;;;5053464;28;20213;-67
2022/08/26 10:51:01;;;;;;;6.97;5.53;;;25.00;99.90;;;;;;5051574;28;20181;-67
2022/08/26 10:53:54;;;;;;;6.30;5.00;;;25.10;99.90;;;;;;5051413;28;20171;-67
2022/08/26 10:56:32;;;;;;;6.60;5.05;;;25.00;99.90;;;;;;5052896;28;20205;-66
2022/08/26 10:59:29;;;;;;;7.07;6.50;;;24.80;99.90;;;;;;5050317;28;20221;-66
2022/08/26 11:02:19;;;;;;;5.05;4.65;;;24.80;99.90;;;;;;5044255;28;20643;-66
2022/08/26 11:05:04;;;;;;;7.25;6.75;;;24.80;99.90;;;;;;5050999;28;20747;-66
2022/08/26 11:07:42;;;;;;;7.00;6.50;;;24.90;99.90;;;;;;5052250;28;20257;-66
2022/08/26 11:10:20;;;;;;;6.78;5.15;;;25.10;99.90;;;;;;5052680;28;20170;-66
2022/08/26 11:12:50;;;;;;;6.18;5.57;;;25.20;99.90;;;;;;5052221;28;20273;-66
2022/08/26 11:15:19;;;;;;;7.80;7.20;;;25.30;99.90;;;;;;5052284;28;20186;-67
2022/08/26 11:17:45;;;;;;;8.00;7.28;;;25.40;99.90;;;;;;5044765;28;20615;-66
2022/08/26 11:20:42;;;;;;;8.68;7.05;;;25.40;99.90;;;;;;5031351;28;20199;-67
2022/08/26 11:23:21;;;;;;;7.82;7.18;;;25.70;99.90;;;;;;5046552;28;20179;-67
2022/08/26 11:26:07;;;;;;;7.78;6.40;;;25.70;99.90;;;;;;5067489;28;20182;-67
2022/08/26 11:28:39;;;;;;;5.32;4.90;;;25.50;99.90;;;;;;5067397;28;20198;-66
2022/08/26 11:31:22;;;;;;;6.55;4.00;;;25.20;99.90;;;;;;5050781;28;20218;-66
2022/08/26 11:33:49;;;;;;;6.55;4.60;;;25.10;99.90;;;;;;5051722;28;20179;-66
2022/08/26 11:36:44;;;;;;;6.78;4.40;;;24.90;99.90;;;;;;5050627;28;20399;-67
2022/08/26 11:39:29;;;;;;;5.55;4.40;;;24.70;99.90;;;;;;5050744;28;20612;-66
2022/08/26 11:42:13;;;;;;;8.57;4.88;;;24.50;99.90;;;;;;5050593;28;20213;-66
2022/08/26 11:44:42;;;;;;;4.95;4.38;;;24.30;99.90;;;;;;5050052;28;20565;-67
2022/08/26 11:47:11;;;;;;;6.10;3.70;;;24.30;99.90;;;;;;5050977;28;20179;-66
2022/08/26 11:49:37;;;;;;;6.80;6.20;;;24.40;99.90;;;;;;5051547;28;20207;-67
2022/08/26 11:52:20;;;;;;;6.10;4.53;;;24.60;99.90;;;;;;5051722;28;20293;-67
2022/08/26 11:55:13;;;;;;;4.70;4.30;;;24.30;99.90;;;;;;5050838;28;20175;-66
2022/08/26 11:57:45;;;;;;;5.13;3.95;;;24.30;99.90;;;;;;5048666;28;20206;-66
2022/08/26 12:00:20;;;;;;;8.50;5.93;;;24.50;99.90;;;;;;5051573;28;20182;-67
2022/08/26 12:02:46;;;;;;;7.43;5.45;;;24.70;99.90;;;;;;5050375;28;20210;-66
2022/08/26 12:05:22;;;;;;;5.13;4.70;;;24.90;99.90;;;;;;5051380;28;20641;-66
2022/08/26 12:07:50;;;;;;;7.28;6.78;;;24.80;99.90;;;;;;5050216;28;20660;-66
2022/08/26 12:10:32;;;;;;;9.75;4.82;;;25.00;99.90;;;;;;5051493;28;20505;-67
2022/08/26 12:13:00;;;;;;;5.82;4.60;;;25.20;99.90;;;;;;5050192;28;20186;-67
2022/08/26 12:15:27;;;;;;;5.18;4.75;;;24.90;99.90;;;;;;5049752;28;20182;-67
2022/08/26 12:17:53;;;;;;;10.23;7.70;;;24.90;99.90;;;;;;5051446;28;20202;-66
2022/08/26 12:20:44;;;;;;;6.95;6.47;;;24.80;99.90;;;;;;5050049;28;20236;-66
2022/08/26 12:23:19;;;;;;;7.05;4.88;;;24.60;99.90;;;;;;5051565;28;20182;-67
2022/08/26 12:25:45;;;;;;;7.97;4.75;;;24.40;99.90;;;;;;5050930;28;20544;-66
2022/08/26 12:28:11;;;;;;;6.57;4.45;;;24.50;99.90;;;;;;5051053;28;20197;-66
2022/08/26 12:30:37;;;;;;;7.32;4.90;;;24.50;99.90;;;;;;5066719;28;20197;-66
2022/08/26 12:33:12;;;;;;;5.00;4.50;;;24.50;99.90;;;;;;5047924;28;20218;-67
2022/08/26 12:35:39;;;;;;;4.97;4.32;;;24.30;99.90;;;;;;5050585;28;20173;-67
2022/08/26 12:38:07;;;;;;;8.02;4.68;;;24.30;99.90;;;;;;5051234;28;20403;-66
2022/08/26 12:40:42;;;;;;;4.95;4.53;;;24.20;99.90;;;;;;5049883;28;20667;-67
2022/08/26 12:43:09;;;;;;;5.53;4.63;;;24.20;99.90;;;;;;5048611;28;20576;-66
2022/08/26 12:45:54;;;;;;;7.00;4.60;;;24.30;99.90;;;;;;5050699;28;20873;-66
2022/08/26 12:48:34;;;;;;;4.45;4.03;;;24.40;99.90;;;;;;5051170;28;20209;-67
2022/08/26 12:51:01;;;;;;;5.28;4.88;;;24.20;99.90;;;;;;5051303;28;20204;-68
2022/08/26 12:53:32;;;;;;;6.78;4.85;;;24.00;99.90;;;;;;5050895;28;20659;-66
2022/08/26 12:56:04;;;;;;;8.45;7.75;;;23.80;99.90;;;;;;5050830;28;20181;-66
2022/08/26 12:58:31;;;;;;;8.57;7.97;;;23.80;99.90;;;;;;5050054;28;20195;-66